sensor_id;sensor_type;location;lat;lon;timestamp;P1;durP1;ratioP1;P2;durP2;ratioP2
40691;SDS011;26377;53.344;14.886;2022-09-09T00:01:25;4.10;;;3.70;;
40691;SDS011;26377;53.344;14.886;2022-09-09T00:09:45;4.95;;;3.83;;
40691;SDS011;26377;53.344;14.886;2022-09-09T00:15:19;5.47;;;4.00;;
40691;SDS011;26377;53.344;14.886;2022-09-09T00:21:05;8.20;;;4.25;;
40691;SDS011;26377;53.344;14.886;2022-09-09T00:23:28;6.60;;;4.25;;
40691;SDS011;26377;53.344;14.886;2022-09-09T00:26:19;6.28;;;4.58;;
40691;SDS011;26377;53.344;14.886;2022-09-09T00:29:16;4.87;;;4.20;;
40691;SDS011;26377;53.344;14.886;2022-09-09T00:31:49;5.60;;;4.28;;
40691;SDS011;26377;53.344;14.886;2022-09-09T00:34:27;5.80;;;4.08;;
40691;SDS011;26377;53.344;14.886;2022-09-09T00:36:58;4.58;;;4.00;;
40691;SDS011;26377;53.344;14.886;2022-09-09T00:39:32;4.50;;;4.05;;
40691;SDS011;26377;53.344;14.886;2022-09-09T00:42:25;5.78;;;4.25;;
40691;SDS011;26377;53.344;14.886;2022-09-09T00:45:05;6.10;;;3.70;;
40691;SDS011;26377;53.344;14.886;2022-09-09T00:48:06;7.97;;;4.08;;
40691;SDS011;26377;53.344;14.886;2022-09-09T00:50:48;4.55;;;3.85;;
40691;SDS011;26377;53.344;14.886;2022-09-09T00:53:39;5.90;;;4.17;;
40691;SDS011;26377;53.344;14.886;2022-09-09T00:56:33;5.05;;;4.08;;
40691;SDS011;26377;53.344;14.886;2022-09-09T01:01:53;6.40;;;4.35;;
40691;SDS011;26377;53.344;14.886;2022-09-09T01:04:26;5.40;;;4.08;;
40691;SDS011;26377;53.344;14.886;2022-09-09T01:07:02;4.87;;;4.20;;
40691;SDS011;26377;53.344;14.886;2022-09-09T01:09:38;4.85;;;4.35;;
40691;SDS011;26377;53.344;14.886;2022-09-09T01:12:17;5.22;;;4.20;;
40691;SDS011;26377;53.344;14.886;2022-09-09T01:14:56;5.20;;;4.47;;
40691;SDS011;26377;53.344;14.886;2022-09-09T01:17:58;5.80;;;4.25;;
40691;SDS011;26377;53.344;14.886;2022-09-09T01:20:31;5.60;;;4.30;;
40691;SDS011;26377;53.344;14.886;2022-09-09T01:29:04;6.47;;;4.45;;
40691;SDS011;26377;53.344;14.886;2022-09-09T01:31:39;4.87;;;4.22;;
40691;SDS011;26377;53.344;14.886;2022-09-09T01:34:36;7.03;;;4.37;;
40691;SDS011;26377;53.344;14.886;2022-09-09T01:37:05;5.42;;;3.95;;
40691;SDS011;26377;53.344;14.886;2022-09-09T01:39:40;4.97;;;4.00;;
40691;SDS011;26377;53.344;14.886;2022-09-09T01:42:15;5.20;;;4.00;;
40691;SDS011;26377;53.344;14.886;2022-09-09T01:44:44;5.03;;;4.25;;
40691;SDS011;26377;53.344;14.886;2022-09-09T01:47:13;7.05;;;4.10;;
40691;SDS011;26377;53.344;14.886;2022-09-09T01:49:43;5.00;;;4.03;;
40691;SDS011;26377;53.344;14.886;2022-09-09T01:52:13;4.95;;;4.25;;
40691;SDS011;26377;53.344;14.886;2022-09-09T01:54:44;7.83;;;3.85;;
40691;SDS011;26377;53.344;14.886;2022-09-09T02:00:04;5.12;;;4.37;;
40691;SDS011;26377;53.344;14.886;2022-09-09T02:08:50;6.12;;;5.10;;
40691;SDS011;26377;53.344;14.886;2022-09-09T02:11:14;6.08;;;4.90;;
40691;SDS011;26377;53.344;14.886;2022-09-09T02:13:48;5.80;;;4.62;;
40691;SDS011;26377;53.344;14.886;2022-09-09T02:16:26;6.17;;;4.62;;
40691;SDS011;26377;53.344;14.886;2022-09-09T02:19:23;6.25;;;4.58;;
40691;SDS011;26377;53.344;14.886;2022-09-09T02:22:08;9.25;;;4.20;;
40691;SDS011;26377;53.344;14.886;2022-09-09T02:24:39;8.35;;;5.37;;
40691;SDS011;26377;53.344;14.886;2022-09-09T02:27:12;5.90;;;5.30;;
40691;SDS011;26377;53.344;14.886;2022-09-09T02:29:44;7.35;;;4.45;;
40691;SDS011;26377;53.344;14.886;2022-09-09T02:32:14;7.55;;;5.22;;
40691;SDS011;26377;53.344;14.886;2022-09-09T02:34:47;5.33;;;4.72;;
40691;SDS011;26377;53.344;14.886;2022-09-09T02:37:23;6.72;;;4.70;;
40691;SDS011;26377;53.344;14.886;2022-09-09T02:39:58;5.55;;;4.67;;
40691;SDS011;26377;53.344;14.886;2022-09-09T02:42:27;5.67;;;4.90;;
40691;SDS011;26377;53.344;14.886;2022-09-09T02:44:56;5.70;;;4.58;;
40691;SDS011;26377;53.344;14.886;2022-09-09T02:47:29;4.87;;;4.22;;
40691;SDS011;26377;53.344;14.886;2022-09-09T02:50:19;5.00;;;4.40;;
40691;SDS011;26377;53.344;14.886;2022-09-09T02:55:52;5.85;;;4.75;;
40691;SDS011;26377;53.344;14.886;2022-09-09T02:58:24;7.42;;;4.70;;
40691;SDS011;26377;53.344;14.886;2022-09-09T03:00:59;6.62;;;4.92;;
40691;SDS011;26377;53.344;14.886;2022-09-09T03:03:30;7.30;;;5.05;;
40691;SDS011;26377;53.344;14.886;2022-09-09T03:06:01;5.15;;;4.65;;
40691;SDS011;26377;53.344;14.886;2022-09-09T03:08:29;6.53;;;5.10;;
40691;SDS011;26377;53.344;14.886;2022-09-09T03:10:58;7.28;;;5.05;;
40691;SDS011;26377;53.344;14.886;2022-09-09T03:13:31;6.40;;;4.37;;
40691;SDS011;26377;53.344;14.886;2022-09-09T03:15:58;9.05;;;4.58;;
40691;SDS011;26377;53.344;14.886;2022-09-09T03:18:26;7.17;;;4.70;;
40691;SDS011;26377;53.344;14.886;2022-09-09T03:20:56;9.45;;;5.28;;
40691;SDS011;26377;53.344;14.886;2022-09-09T03:23:26;6.25;;;5.28;;
40691;SDS011;26377;53.344;14.886;2022-09-09T03:25:59;6.97;;;5.10;;
40691;SDS011;26377;53.344;14.886;2022-09-09T03:28:28;9.13;;;5.08;;
40691;SDS011;26377;53.344;14.886;2022-09-09T03:31:00;6.85;;;5.40;;
40691;SDS011;26377;53.344;14.886;2022-09-09T03:33:34;7.72;;;5.47;;
40691;SDS011;26377;53.344;14.886;2022-09-09T03:36:03;6.67;;;5.75;;
40691;SDS011;26377;53.344;14.886;2022-09-09T03:38:34;7.33;;;6.25;;
40691;SDS011;26377;53.344;14.886;2022-09-09T03:41:01;6.67;;;5.97;;
40691;SDS011;26377;53.344;14.886;2022-09-09T03:43:30;11.10;;;6.00;;
40691;SDS011;26377;53.344;14.886;2022-09-09T03:45:58;6.92;;;6.22;;
40691;SDS011;26377;53.344;14.886;2022-09-09T03:48:28;8.48;;;6.12;;
40691;SDS011;26377;53.344;14.886;2022-09-09T03:50:56;6.40;;;5.72;;
40691;SDS011;26377;53.344;14.886;2022-09-09T03:53:25;6.37;;;5.78;;
40691;SDS011;26377;53.344;14.886;2022-09-09T03:55:55;7.37;;;5.75;;
40691;SDS011;26377;53.344;14.886;2022-09-09T03:58:26;7.03;;;6.33;;
40691;SDS011;26377;53.344;14.886;2022-09-09T04:00:57;10.08;;;6.03;;
40691;SDS011;26377;53.344;14.886;2022-09-09T04:03:28;7.47;;;5.75;;
40691;SDS011;26377;53.344;14.886;2022-09-09T04:06:02;6.30;;;5.70;;
40691;SDS011;26377;53.344;14.886;2022-09-09T04:08:34;9.88;;;6.60;;
40691;SDS011;26377;53.344;14.886;2022-09-09T04:11:03;7.00;;;6.30;;
40691;SDS011;26377;53.344;14.886;2022-09-09T04:16:05;7.42;;;6.62;;
40691;SDS011;26377;53.344;14.886;2022-09-09T04:18:35;8.88;;;7.33;;
40691;SDS011;26377;53.344;14.886;2022-09-09T04:21:04;8.48;;;7.58;;
40691;SDS011;26377;53.344;14.886;2022-09-09T04:23:33;9.43;;;7.17;;
40691;SDS011;26377;53.344;14.886;2022-09-09T04:26:01;8.75;;;7.85;;
40691;SDS011;26377;53.344;14.886;2022-09-09T04:28:34;8.60;;;7.80;;
40691;SDS011;26377;53.344;14.886;2022-09-09T04:31:09;8.95;;;8.08;;
40691;SDS011;26377;53.344;14.886;2022-09-09T04:33:40;9.68;;;8.68;;
40691;SDS011;26377;53.344;14.886;2022-09-09T04:36:10;10.28;;;8.98;;
40691;SDS011;26377;53.344;14.886;2022-09-09T04:38:39;10.98;;;9.83;;
40691;SDS011;26377;53.344;14.886;2022-09-09T04:41:09;10.35;;;9.18;;
40691;SDS011;26377;53.344;14.886;2022-09-09T04:43:40;12.65;;;11.35;;
40691;SDS011;26377;53.344;14.886;2022-09-09T04:46:08;12.55;;;11.25;;
40691;SDS011;26377;53.344;14.886;2022-09-09T04:48:36;12.65;;;10.85;;
40691;SDS011;26377;53.344;14.886;2022-09-09T04:51:04;13.05;;;11.70;;
40691;SDS011;26377;53.344;14.886;2022-09-09T04:53:36;13.05;;;11.75;;
40691;SDS011;26377;53.344;14.886;2022-09-09T04:56:06;12.35;;;11.05;;
40691;SDS011;26377;53.344;14.886;2022-09-09T04:58:45;12.07;;;10.40;;
40691;SDS011;26377;53.344;14.886;2022-09-09T05:03:45;14.20;;;10.68;;
40691;SDS011;26377;53.344;14.886;2022-09-09T05:06:16;12.18;;;10.98;;
40691;SDS011;26377;53.344;14.886;2022-09-09T05:08:50;13.70;;;11.28;;
40691;SDS011;26377;53.344;14.886;2022-09-09T05:11:21;11.97;;;10.70;;
40691;SDS011;26377;53.344;14.886;2022-09-09T05:13:57;13.38;;;10.72;;
40691;SDS011;26377;53.344;14.886;2022-09-09T05:16:28;12.68;;;10.78;;
40691;SDS011;26377;53.344;14.886;2022-09-09T05:18:58;11.97;;;9.93;;
40691;SDS011;26377;53.344;14.886;2022-09-09T05:21:29;11.15;;;9.95;;
40691;SDS011;26377;53.344;14.886;2022-09-09T05:23:57;11.68;;;10.35;;
40691;SDS011;26377;53.344;14.886;2022-09-09T05:26:26;13.08;;;10.50;;
40691;SDS011;26377;53.344;14.886;2022-09-09T05:28:58;11.15;;;10.00;;
40691;SDS011;26377;53.344;14.886;2022-09-09T05:31:29;11.22;;;9.28;;
40691;SDS011;26377;53.344;14.886;2022-09-09T05:33:59;11.78;;;9.75;;
40691;SDS011;26377;53.344;14.886;2022-09-09T05:36:26;9.38;;;8.35;;
40691;SDS011;26377;53.344;14.886;2022-09-09T05:38:55;10.78;;;9.15;;
40691;SDS011;26377;53.344;14.886;2022-09-09T05:41:24;11.30;;;9.05;;
40691;SDS011;26377;53.344;14.886;2022-09-09T05:43:53;10.28;;;9.13;;
40691;SDS011;26377;53.344;14.886;2022-09-09T05:46:23;10.45;;;9.38;;
40691;SDS011;26377;53.344;14.886;2022-09-09T05:48:52;10.23;;;9.23;;
40691;SDS011;26377;53.344;14.886;2022-09-09T05:51:23;11.63;;;9.53;;
40691;SDS011;26377;53.344;14.886;2022-09-09T05:53:56;12.98;;;11.33;;
40691;SDS011;26377;53.344;14.886;2022-09-09T05:56:27;14.28;;;12.78;;
40691;SDS011;26377;53.344;14.886;2022-09-09T05:58:58;17.98;;;14.80;;
40691;SDS011;26377;53.344;14.886;2022-09-09T06:01:27;21.33;;;14.63;;
40691;SDS011;26377;53.344;14.886;2022-09-09T06:03:59;17.95;;;15.65;;
40691;SDS011;26377;53.344;14.886;2022-09-09T06:06:30;19.10;;;14.43;;
40691;SDS011;26377;53.344;14.886;2022-09-09T06:09:03;18.00;;;13.15;;
40691;SDS011;26377;53.344;14.886;2022-09-09T06:11:35;17.50;;;14.03;;
40691;SDS011;26377;53.344;14.886;2022-09-09T06:14:04;19.57;;;13.95;;
40691;SDS011;26377;53.344;14.886;2022-09-09T06:16:33;27.90;;;14.95;;
40691;SDS011;26377;53.344;14.886;2022-09-09T06:19:04;19.40;;;15.45;;
40691;SDS011;26377;53.344;14.886;2022-09-09T06:21:34;21.80;;;15.80;;
40691;SDS011;26377;53.344;14.886;2022-09-09T06:24:08;23.20;;;17.30;;
40691;SDS011;26377;53.344;14.886;2022-09-09T06:26:36;18.90;;;15.93;;
40691;SDS011;26377;53.344;14.886;2022-09-09T06:29:07;21.80;;;16.48;;
40691;SDS011;26377;53.344;14.886;2022-09-09T06:31:37;22.50;;;16.05;;
40691;SDS011;26377;53.344;14.886;2022-09-09T06:34:07;21.12;;;17.05;;
40691;SDS011;26377;53.344;14.886;2022-09-09T06:36:39;19.37;;;16.37;;
40691;SDS011;26377;53.344;14.886;2022-09-09T06:39:07;21.25;;;16.97;;
40691;SDS011;26377;53.344;14.886;2022-09-09T06:41:36;19.98;;;16.20;;
40691;SDS011;26377;53.344;14.886;2022-09-09T06:44:06;22.52;;;16.75;;
40691;SDS011;26377;53.344;14.886;2022-09-09T06:46:35;20.57;;;17.57;;
40691;SDS011;26377;53.344;14.886;2022-09-09T06:49:02;25.85;;;18.90;;
40691;SDS011;26377;53.344;14.886;2022-09-09T06:51:34;22.50;;;18.60;;
40691;SDS011;26377;53.344;14.886;2022-09-09T06:54:06;23.67;;;19.27;;
40691;SDS011;26377;53.344;14.886;2022-09-09T06:56:37;22.65;;;18.48;;
40691;SDS011;26377;53.344;14.886;2022-09-09T06:59:10;23.02;;;18.20;;
40691;SDS011;26377;53.344;14.886;2022-09-09T07:01:40;24.80;;;19.52;;
40691;SDS011;26377;53.344;14.886;2022-09-09T07:04:12;25.77;;;19.00;;
40691;SDS011;26377;53.344;14.886;2022-09-09T07:06:42;21.17;;;16.85;;
40691;SDS011;26377;53.344;14.886;2022-09-09T07:09:15;23.05;;;17.42;;
40691;SDS011;26377;53.344;14.886;2022-09-09T07:11:47;22.52;;;17.65;;
40691;SDS011;26377;53.344;14.886;2022-09-09T07:14:20;24.65;;;18.55;;
40691;SDS011;26377;53.344;14.886;2022-09-09T07:16:51;21.60;;;16.87;;
40691;SDS011;26377;53.344;14.886;2022-09-09T07:19:20;22.07;;;16.55;;
40691;SDS011;26377;53.344;14.886;2022-09-09T07:21:49;19.55;;;15.88;;
40691;SDS011;26377;53.344;14.886;2022-09-09T07:24:18;18.80;;;16.17;;
40691;SDS011;26377;53.344;14.886;2022-09-09T07:26:47;20.15;;;15.88;;
40691;SDS011;26377;53.344;14.886;2022-09-09T07:29:16;19.55;;;15.53;;
40691;SDS011;26377;53.344;14.886;2022-09-09T07:31:43;17.05;;;14.50;;
40691;SDS011;26377;53.344;14.886;2022-09-09T07:34:12;18.92;;;14.60;;
40691;SDS011;26377;53.344;14.886;2022-09-09T07:36:40;19.23;;;15.43;;
40691;SDS011;26377;53.344;14.886;2022-09-09T07:39:10;18.25;;;14.65;;
40691;SDS011;26377;53.344;14.886;2022-09-09T07:41:42;17.80;;;14.60;;
40691;SDS011;26377;53.344;14.886;2022-09-09T07:44:16;17.82;;;14.28;;
40691;SDS011;26377;53.344;14.886;2022-09-09T07:46:50;19.40;;;13.50;;
40691;SDS011;26377;53.344;14.886;2022-09-09T07:49:19;18.10;;;13.32;;
40691;SDS011;26377;53.344;14.886;2022-09-09T07:51:47;17.42;;;12.33;;
40691;SDS011;26377;53.344;14.886;2022-09-09T07:54:17;15.78;;;13.10;;
40691;SDS011;26377;53.344;14.886;2022-09-09T07:56:50;15.28;;;12.78;;
40691;SDS011;26377;53.344;14.886;2022-09-09T07:59:19;14.60;;;12.75;;
40691;SDS011;26377;53.344;14.886;2022-09-09T08:01:49;15.10;;;13.48;;
40691;SDS011;26377;53.344;14.886;2022-09-09T08:04:24;14.75;;;12.85;;
40691;SDS011;26377;53.344;14.886;2022-09-09T08:06:58;14.23;;;12.65;;
40691;SDS011;26377;53.344;14.886;2022-09-09T08:09:30;15.95;;;13.25;;
40691;SDS011;26377;53.344;14.886;2022-09-09T08:12:01;13.85;;;12.30;;
40691;SDS011;26377;53.344;14.886;2022-09-09T08:14:28;14.83;;;12.33;;
40691;SDS011;26377;53.344;14.886;2022-09-09T08:16:56;13.93;;;12.07;;
40691;SDS011;26377;53.344;14.886;2022-09-09T08:19:26;12.70;;;11.38;;
40691;SDS011;26377;53.344;14.886;2022-09-09T08:21:55;14.45;;;12.23;;
40691;SDS011;26377;53.344;14.886;2022-09-09T08:24:22;13.53;;;11.57;;
40691;SDS011;26377;53.344;14.886;2022-09-09T08:26:53;13.72;;;12.07;;
40691;SDS011;26377;53.344;14.886;2022-09-09T08:29:23;15.83;;;12.25;;
40691;SDS011;26377;53.344;14.886;2022-09-09T08:31:55;15.68;;;11.68;;
40691;SDS011;26377;53.344;14.886;2022-09-09T08:34:24;12.68;;;11.22;;
40691;SDS011;26377;53.344;14.886;2022-09-09T08:36:54;14.83;;;11.57;;
40691;SDS011;26377;53.344;14.886;2022-09-09T08:39:25;12.07;;;10.68;;
40691;SDS011;26377;53.344;14.886;2022-09-09T08:50:34;10.15;;;9.05;;
40691;SDS011;26377;53.344;14.886;2022-09-09T08:53:22;11.68;;;9.43;;
40691;SDS011;26377;53.344;14.886;2022-09-09T08:56:02;12.15;;;9.55;;
40691;SDS011;26377;53.344;14.886;2022-09-09T08:58:47;11.53;;;9.70;;
40691;SDS011;26377;53.344;14.886;2022-09-09T09:07:46;13.55;;;10.45;;
40691;SDS011;26377;53.344;14.886;2022-09-09T09:13:26;13.20;;;11.55;;
40691;SDS011;26377;53.344;14.886;2022-09-09T09:16:35;11.93;;;10.50;;
40691;SDS011;26377;53.344;14.886;2022-09-09T09:19:28;12.07;;;10.08;;
40691;SDS011;26377;53.344;14.886;2022-09-09T09:27:33;11.35;;;9.43;;
40691;SDS011;26377;53.344;14.886;2022-09-09T09:30:22;10.88;;;9.73;;
40691;SDS011;26377;53.344;14.886;2022-09-09T09:35:29;9.40;;;8.50;;
40691;SDS011;26377;53.344;14.886;2022-09-09T09:37:59;10.00;;;9.00;;
40691;SDS011;26377;53.344;14.886;2022-09-09T09:40:29;9.93;;;8.80;;
40691;SDS011;26377;53.344;14.886;2022-09-09T09:43:00;10.50;;;9.43;;
40691;SDS011;26377;53.344;14.886;2022-09-09T09:45:35;9.90;;;7.42;;
40691;SDS011;26377;53.344;14.886;2022-09-09T09:48:14;9.23;;;8.20;;
40691;SDS011;26377;53.344;14.886;2022-09-09T09:53:32;9.45;;;6.92;;
40691;SDS011;26377;53.344;14.886;2022-09-09T09:56:02;9.13;;;7.90;;
40691;SDS011;26377;53.344;14.886;2022-09-09T10:01:22;9.90;;;7.87;;
40691;SDS011;26377;53.344;14.886;2022-09-09T10:03:54;9.80;;;7.78;;
40691;SDS011;26377;53.344;14.886;2022-09-09T10:06:33;7.05;;;6.08;;
40691;SDS011;26377;53.344;14.886;2022-09-09T10:09:03;9.95;;;7.08;;
40691;SDS011;26377;53.344;14.886;2022-09-09T10:17:54;6.17;;;5.58;;
40691;SDS011;26377;53.344;14.886;2022-09-09T10:23:21;9.03;;;6.28;;
40691;SDS011;26377;53.344;14.886;2022-09-09T10:29:23;7.95;;;6.60;;
40691;SDS011;26377;53.344;14.886;2022-09-09T10:38:17;7.95;;;6.60;;
40691;SDS011;26377;53.344;14.886;2022-09-09T10:46:54;5.40;;;4.80;;
40691;SDS011;26377;53.344;14.886;2022-09-09T10:58:04;5.80;;;4.97;;
40691;SDS011;26377;53.344;14.886;2022-09-09T11:00:41;6.58;;;4.90;;
40691;SDS011;26377;53.344;14.886;2022-09-09T11:03:18;4.87;;;4.30;;
40691;SDS011;26377;53.344;14.886;2022-09-09T11:06:00;5.87;;;4.83;;
40691;SDS011;26377;53.344;14.886;2022-09-09T11:08:35;8.58;;;4.10;;
40691;SDS011;26377;53.344;14.886;2022-09-09T11:11:15;5.10;;;3.75;;
40691;SDS011;26377;53.344;14.886;2022-09-09T11:14:11;5.40;;;3.65;;
40691;SDS011;26377;53.344;14.886;2022-09-09T11:19:36;5.37;;;3.00;;
40691;SDS011;26377;53.344;14.886;2022-09-09T11:25:26;4.62;;;2.40;;
40691;SDS011;26377;53.344;14.886;2022-09-09T11:40:04;4.03;;;1.80;;
40691;SDS011;26377;53.344;14.886;2022-09-09T11:42:42;8.50;;;2.00;;
40691;SDS011;26377;53.344;14.886;2022-09-09T11:47:56;2.50;;;1.65;;
40691;SDS011;26377;53.344;14.886;2022-09-09T11:56:02;3.50;;;1.75;;
40691;SDS011;26377;53.344;14.886;2022-09-09T11:58:54;3.95;;;1.60;;
40691;SDS011;26377;53.344;14.886;2022-09-09T12:01:42;3.50;;;1.62;;
40691;SDS011;26377;53.344;14.886;2022-09-09T12:09:44;3.77;;;1.80;;
40691;SDS011;26377;53.344;14.886;2022-09-09T12:17:42;3.35;;;1.65;;
40691;SDS011;26377;53.344;14.886;2022-09-09T12:33:52;3.12;;;1.20;;
40691;SDS011;26377;53.344;14.886;2022-09-09T12:36:29;4.15;;;1.25;;
40691;SDS011;26377;53.344;14.886;2022-09-09T12:38:56;4.37;;;1.50;;
40691;SDS011;26377;53.344;14.886;2022-09-09T12:41:29;3.50;;;1.30;;
40691;SDS011;26377;53.344;14.886;2022-09-09T12:44:06;2.62;;;0.90;;
40691;SDS011;26377;53.344;14.886;2022-09-09T12:46:39;5.53;;;1.30;;
40691;SDS011;26377;53.344;14.886;2022-09-09T12:49:30;4.90;;;1.32;;
40691;SDS011;26377;53.344;14.886;2022-09-09T12:52:12;7.47;;;1.47;;
40691;SDS011;26377;53.344;14.886;2022-09-09T12:54:37;3.37;;;1.42;;
40691;SDS011;26377;53.344;14.886;2022-09-09T12:57:04;2.37;;;1.15;;
40691;SDS011;26377;53.344;14.886;2022-09-09T12:59:36;5.40;;;1.20;;
40691;SDS011;26377;53.344;14.886;2022-09-09T13:02:11;3.33;;;1.20;;
40691;SDS011;26377;53.344;14.886;2022-09-09T13:04:51;4.37;;;1.30;;
40691;SDS011;26377;53.344;14.886;2022-09-09T13:07:20;4.22;;;1.35;;
40691;SDS011;26377;53.344;14.886;2022-09-09T13:09:48;5.60;;;1.50;;
40691;SDS011;26377;53.344;14.886;2022-09-09T13:12:18;3.40;;;1.30;;
40691;SDS011;26377;53.344;14.886;2022-09-09T13:14:51;3.52;;;1.37;;
40691;SDS011;26377;53.344;14.886;2022-09-09T13:17:23;2.47;;;1.27;;
40691;SDS011;26377;53.344;14.886;2022-09-09T13:19:55;3.95;;;1.20;;
40691;SDS011;26377;53.344;14.886;2022-09-09T13:25:05;3.62;;;1.10;;
40691;SDS011;26377;53.344;14.886;2022-09-09T13:27:50;4.10;;;1.40;;
40691;SDS011;26377;53.344;14.886;2022-09-09T13:30:20;4.33;;;1.30;;
40691;SDS011;26377;53.344;14.886;2022-09-09T13:35:50;5.22;;;1.60;;
40691;SDS011;26377;53.344;14.886;2022-09-09T13:38:26;3.27;;;1.20;;
40691;SDS011;26377;53.344;14.886;2022-09-09T13:43:37;5.47;;;1.77;;
40691;SDS011;26377;53.344;14.886;2022-09-09T13:51:40;4.40;;;1.50;;
40691;SDS011;26377;53.344;14.886;2022-09-09T13:54:17;3.90;;;1.22;;
40691;SDS011;26377;53.344;14.886;2022-09-09T13:56:46;3.27;;;1.10;;
40691;SDS011;26377;53.344;14.886;2022-09-09T13:59:17;3.58;;;1.22;;
40691;SDS011;26377;53.344;14.886;2022-09-09T14:01:49;4.00;;;1.27;;
40691;SDS011;26377;53.344;14.886;2022-09-09T14:04:18;2.72;;;0.95;;
40691;SDS011;26377;53.344;14.886;2022-09-09T14:06:49;3.65;;;1.20;;
40691;SDS011;26377;53.344;14.886;2022-09-09T14:09:17;3.33;;;0.90;;
40691;SDS011;26377;53.344;14.886;2022-09-09T14:11:47;3.83;;;1.20;;
40691;SDS011;26377;53.344;14.886;2022-09-09T14:14:14;4.72;;;1.27;;
40691;SDS011;26377;53.344;14.886;2022-09-09T14:16:43;3.33;;;1.20;;
40691;SDS011;26377;53.344;14.886;2022-09-09T14:19:11;4.87;;;1.15;;
40691;SDS011;26377;53.344;14.886;2022-09-09T14:21:38;4.47;;;1.70;;
40691;SDS011;26377;53.344;14.886;2022-09-09T14:24:07;2.20;;;0.90;;
40691;SDS011;26377;53.344;14.886;2022-09-09T14:26:35;5.00;;;1.07;;
40691;SDS011;26377;53.344;14.886;2022-09-09T14:29:02;3.80;;;1.30;;
40691;SDS011;26377;53.344;14.886;2022-09-09T14:31:30;7.85;;;1.35;;
40691;SDS011;26377;53.344;14.886;2022-09-09T14:33:59;4.00;;;1.20;;
40691;SDS011;26377;53.344;14.886;2022-09-09T14:36:26;2.75;;;1.40;;
40691;SDS011;26377;53.344;14.886;2022-09-09T14:38:53;2.98;;;1.10;;
40691;SDS011;26377;53.344;14.886;2022-09-09T14:41:21;2.85;;;0.85;;
40691;SDS011;26377;53.344;14.886;2022-09-09T14:43:48;4.75;;;1.20;;
40691;SDS011;26377;53.344;14.886;2022-09-09T14:46:17;5.90;;;1.05;;
40691;SDS011;26377;53.344;14.886;2022-09-09T14:48:48;8.43;;;1.20;;
40691;SDS011;26377;53.344;14.886;2022-09-09T14:51:17;3.17;;;1.30;;
40691;SDS011;26377;53.344;14.886;2022-09-09T14:53:48;3.35;;;0.98;;
40691;SDS011;26377;53.344;14.886;2022-09-09T14:56:23;5.45;;;1.35;;
40691;SDS011;26377;53.344;14.886;2022-09-09T14:58:55;5.15;;;1.50;;
40691;SDS011;26377;53.344;14.886;2022-09-09T15:01:27;4.80;;;1.40;;
40691;SDS011;26377;53.344;14.886;2022-09-09T15:03:57;6.47;;;1.50;;
40691;SDS011;26377;53.344;14.886;2022-09-09T15:06:27;2.42;;;1.00;;
40691;SDS011;26377;53.344;14.886;2022-09-09T15:08:59;5.40;;;1.30;;
40691;SDS011;26377;53.344;14.886;2022-09-09T15:11:30;3.02;;;1.10;;
40691;SDS011;26377;53.344;14.886;2022-09-09T15:14:01;5.83;;;1.35;;
40691;SDS011;26377;53.344;14.886;2022-09-09T15:16:29;4.35;;;1.10;;
40691;SDS011;26377;53.344;14.886;2022-09-09T15:18:59;3.92;;;1.05;;
40691;SDS011;26377;53.344;14.886;2022-09-09T15:21:32;6.60;;;1.20;;
40691;SDS011;26377;53.344;14.886;2022-09-09T15:26:29;3.10;;;1.05;;
40691;SDS011;26377;53.344;14.886;2022-09-09T15:28:59;5.42;;;1.50;;
40691;SDS011;26377;53.344;14.886;2022-09-09T15:31:28;2.52;;;1.10;;
40691;SDS011;26377;53.344;14.886;2022-09-09T15:33:57;3.92;;;1.35;;
40691;SDS011;26377;53.344;14.886;2022-09-09T15:36:28;4.72;;;0.98;;
40691;SDS011;26377;53.344;14.886;2022-09-09T15:39:04;4.05;;;1.35;;
40691;SDS011;26377;53.344;14.886;2022-09-09T15:41:36;4.03;;;1.27;;
40691;SDS011;26377;53.344;14.886;2022-09-09T15:44:03;6.12;;;1.60;;
40691;SDS011;26377;53.344;14.886;2022-09-09T15:46:34;7.37;;;1.67;;
40691;SDS011;26377;53.344;14.886;2022-09-09T15:49:08;4.45;;;1.37;;
40691;SDS011;26377;53.344;14.886;2022-09-09T15:51:44;4.72;;;1.25;;
40691;SDS011;26377;53.344;14.886;2022-09-09T15:54:13;3.77;;;1.52;;
40691;SDS011;26377;53.344;14.886;2022-09-09T15:56:45;8.23;;;1.82;;
40691;SDS011;26377;53.344;14.886;2022-09-09T15:59:19;10.03;;;1.98;;
40691;SDS011;26377;53.344;14.886;2022-09-09T16:01:48;2.77;;;1.20;;
40691;SDS011;26377;53.344;14.886;2022-09-09T16:04:19;4.75;;;1.40;;
40691;SDS011;26377;53.344;14.886;2022-09-09T16:06:53;3.37;;;1.30;;
40691;SDS011;26377;53.344;14.886;2022-09-09T16:09:25;5.67;;;1.70;;
40691;SDS011;26377;53.344;14.886;2022-09-09T16:11:59;9.43;;;1.60;;
40691;SDS011;26377;53.344;14.886;2022-09-09T16:14:24;4.12;;;1.35;;
40691;SDS011;26377;53.344;14.886;2022-09-09T16:16:52;5.97;;;1.67;;
40691;SDS011;26377;53.344;14.886;2022-09-09T16:19:19;5.42;;;2.02;;
40691;SDS011;26377;53.344;14.886;2022-09-09T16:21:47;5.58;;;2.02;;
40691;SDS011;26377;53.344;14.886;2022-09-09T16:24:17;5.37;;;2.03;;
40691;SDS011;26377;53.344;14.886;2022-09-09T16:26:47;6.03;;;1.62;;
40691;SDS011;26377;53.344;14.886;2022-09-09T16:29:17;7.70;;;1.60;;
40691;SDS011;26377;53.344;14.886;2022-09-09T16:31:45;6.30;;;1.80;;
40691;SDS011;26377;53.344;14.886;2022-09-09T16:34:17;4.97;;;1.50;;
40691;SDS011;26377;53.344;14.886;2022-09-09T16:36:48;5.30;;;1.55;;
40691;SDS011;26377;53.344;14.886;2022-09-09T16:39:20;3.33;;;1.20;;
40691;SDS011;26377;53.344;14.886;2022-09-09T16:41:47;3.02;;;1.60;;
40691;SDS011;26377;53.344;14.886;2022-09-09T16:44:16;6.72;;;1.87;;
40691;SDS011;26377;53.344;14.886;2022-09-09T16:46:47;6.25;;;1.32;;
40691;SDS011;26377;53.344;14.886;2022-09-09T16:49:17;9.35;;;1.80;;
40691;SDS011;26377;53.344;14.886;2022-09-09T16:51:46;5.12;;;1.70;;
40691;SDS011;26377;53.344;14.886;2022-09-09T16:54:16;4.97;;;1.30;;
40691;SDS011;26377;53.344;14.886;2022-09-09T16:56:45;4.62;;;1.50;;
40691;SDS011;26377;53.344;14.886;2022-09-09T16:59:17;6.12;;;1.40;;
40691;SDS011;26377;53.344;14.886;2022-09-09T17:04:20;4.00;;;1.77;;
40691;SDS011;26377;53.344;14.886;2022-09-09T17:06:51;2.70;;;1.30;;
40691;SDS011;26377;53.344;14.886;2022-09-09T17:09:22;6.37;;;1.50;;
40691;SDS011;26377;53.344;14.886;2022-09-09T17:11:53;6.25;;;2.27;;
40691;SDS011;26377;53.344;14.886;2022-09-09T17:14:21;6.70;;;2.22;;
40691;SDS011;26377;53.344;14.886;2022-09-09T17:16:51;8.13;;;1.95;;
40691;SDS011;26377;53.344;14.886;2022-09-09T17:19:18;9.43;;;2.10;;
40691;SDS011;26377;53.344;14.886;2022-09-09T17:21:45;12.43;;;1.98;;
40691;SDS011;26377;53.344;14.886;2022-09-09T17:24:16;7.60;;;2.40;;
40691;SDS011;26377;53.344;14.886;2022-09-09T17:26:45;7.28;;;2.70;;
40691;SDS011;26377;53.344;14.886;2022-09-09T17:29:12;8.15;;;3.08;;
40691;SDS011;26377;53.344;14.886;2022-09-09T17:31:40;12.78;;;2.50;;
40691;SDS011;26377;53.344;14.886;2022-09-09T17:34:07;13.85;;;2.50;;
40691;SDS011;26377;53.344;14.886;2022-09-09T17:36:35;6.67;;;2.17;;
40691;SDS011;26377;53.344;14.886;2022-09-09T17:39:05;7.17;;;1.80;;
40691;SDS011;26377;53.344;14.886;2022-09-09T17:41:34;4.92;;;2.27;;
40691;SDS011;26377;53.344;14.886;2022-09-09T17:46:39;5.35;;;2.20;;
40691;SDS011;26377;53.344;14.886;2022-09-09T17:49:12;7.22;;;1.70;;
40691;SDS011;26377;53.344;14.886;2022-09-09T17:51:41;4.03;;;1.75;;